Adamstown, Maryland
Current Conditions -  °F | °C
As of 12:50 PM on Sunday 23 Nov 2014 (Local Time) from KFDK Reporting Station
Clear Clear  
Wind Chill: 55°   Ceiling: Unl
Heat Index: 55°   Visibility: 10mi
Dew Point: 18°   Wind: 5mph
Humidity: 23%   Direction: 230°SW
Pressure: 30.17"   Gusts: NA
Location:  39.31°N, 77.47°W
Report Text: KFDK 231750Z 23004KT 10SM SKC 13/M08 A3017
Loading
Personal Weather Stations






























Interactive Weather Map New forecast layout! Learn more

10-Day Weather Forecast

Advertisements
Track Severe Weather on mobile